createdAt,value
2019-01-28T00:00:40.739Z,985.98
2019-01-28T00:01:40.649Z,986.02
2019-01-28T00:02:40.610Z,986.06
2019-01-28T00:03:40.606Z,986.08
2019-01-28T00:04:40.600Z,986.06
2019-01-28T00:05:40.573Z,986.04
2019-01-28T00:06:40.559Z,986.09
2019-01-28T00:07:40.548Z,986.02
2019-01-28T00:08:40.567Z,986.07
2019-01-28T00:09:40.549Z,986.05
2019-01-28T00:10:40.527Z,986.02
2019-01-28T00:11:40.520Z,985.97
2019-01-28T00:12:40.507Z,986.06
2019-01-28T00:13:40.536Z,986.10
2019-01-28T00:14:40.482Z,986.11
2019-01-28T00:15:40.480Z,986.07
2019-01-28T00:16:40.448Z,986.07
2019-01-28T00:17:40.458Z,986.09
2019-01-28T00:18:40.517Z,986.08
2019-01-28T00:19:40.430Z,986.00
2019-01-28T00:20:40.418Z,986.03
2019-01-28T00:21:40.395Z,986.01
2019-01-28T00:22:40.386Z,985.98
2019-01-28T00:23:40.465Z,985.94
2019-01-28T00:24:40.426Z,985.99
2019-01-28T00:25:40.505Z,985.98
2019-01-28T00:26:40.355Z,985.94
2019-01-28T00:27:40.330Z,985.99
2019-01-28T00:28:40.318Z,985.93
2019-01-28T00:29:40.319Z,985.97
2019-01-28T00:30:40.307Z,985.93
2019-01-28T00:31:40.284Z,985.91
2019-01-28T00:32:40.278Z,985.95
2019-01-28T00:33:40.263Z,985.95
2019-01-28T00:34:40.248Z,985.93
2019-01-28T00:35:40.258Z,985.88
2019-01-28T00:36:40.339Z,985.90
2019-01-28T00:37:40.234Z,985.84
2019-01-28T00:38:40.229Z,985.95
2019-01-28T00:39:40.195Z,985.98
2019-01-28T00:40:40.210Z,985.92
2019-01-28T00:41:40.186Z,985.94
2019-01-28T00:42:40.163Z,985.96
2019-01-28T00:43:40.150Z,985.97
2019-01-28T00:44:40.152Z,985.97
2019-01-28T00:45:40.170Z,985.92
2019-01-28T00:46:40.119Z,985.95
2019-01-28T00:47:40.110Z,985.87
2019-01-28T00:48:40.097Z,985.91
2019-01-28T00:49:40.083Z,985.94
2019-01-28T00:50:40.073Z,985.99
2019-01-28T00:51:40.068Z,985.96
2019-01-28T00:52:40.056Z,985.90
2019-01-28T00:53:40.038Z,985.91
2019-01-28T00:54:40.086Z,985.90
2019-01-28T00:55:40.045Z,985.93
2019-01-28T00:56:40.039Z,985.93
2019-01-28T00:57:40.010Z,985.98
2019-01-28T00:58:39.985Z,985.92
2019-01-28T00:59:39.972Z,985.96
2019-01-28T01:00:39.964Z,985.85
2019-01-28T01:01:39.970Z,985.92
2019-01-28T01:02:39.957Z,985.95
2019-01-28T01:03:39.936Z,985.92
2019-01-28T01:04:39.922Z,985.96
2019-01-28T01:05:39.910Z,985.96
2019-01-28T01:06:39.932Z,985.98
2019-01-28T01:07:39.891Z,985.99
2019-01-28T01:08:39.887Z,985.96
2019-01-28T01:09:39.931Z,985.94
2019-01-28T01:10:39.853Z,985.91
2019-01-28T01:11:39.870Z,985.86
2019-01-28T01:12:39.837Z,985.98
2019-01-28T01:13:39.819Z,985.87
2019-01-28T01:14:39.810Z,985.87
2019-01-28T01:15:39.799Z,985.96
2019-01-28T01:16:39.799Z,985.94
2019-01-28T01:17:39.781Z,985.90
2019-01-28T01:18:39.764Z,985.89
2019-01-28T01:19:39.856Z,985.98
2019-01-28T01:20:39.738Z,986.04
2019-01-28T01:21:39.728Z,985.91
2019-01-28T01:22:40.153Z,985.88
2019-01-28T01:23:39.707Z,985.91
2019-01-28T01:24:39.723Z,985.94
2019-01-28T01:25:39.698Z,985.95
2019-01-28T01:26:39.673Z,985.93
2019-01-28T01:27:39.674Z,985.98
2019-01-28T01:28:39.655Z,986.01
2019-01-28T01:29:39.641Z,985.92
2019-01-28T01:30:39.634Z,985.94
2019-01-28T01:31:39.636Z,985.93
2019-01-28T01:32:39.616Z,985.92
2019-01-28T01:33:39.602Z,985.95
2019-01-28T01:34:39.586Z,985.86
2019-01-28T01:35:39.576Z,985.95
2019-01-28T01:36:39.567Z,985.98
2019-01-28T01:37:39.567Z,985.85
2019-01-28T01:38:39.543Z,985.86
2019-01-28T01:39:39.530Z,985.89
2019-01-28T01:40:39.560Z,986.00
2019-01-28T01:41:39.512Z,985.93
2019-01-28T01:42:39.519Z,985.90
2019-01-28T01:43:39.484Z,985.87
2019-01-28T01:44:39.476Z,985.82
2019-01-28T01:45:39.524Z,985.92
2019-01-28T01:46:39.451Z,985.93
2019-01-28T01:47:39.442Z,985.77
2019-01-28T01:48:39.440Z,985.86
2019-01-28T01:49:39.477Z,985.85
2019-01-28T01:50:39.436Z,985.94
2019-01-28T01:51:39.426Z,985.84
2019-01-28T01:52:39.389Z,985.76
2019-01-28T01:53:39.386Z,985.76
2019-01-28T01:54:39.370Z,985.77
2019-01-28T01:55:39.397Z,985.78
2019-01-28T01:56:39.361Z,985.81
2019-01-28T01:57:39.337Z,985.81
2019-01-28T01:58:39.326Z,985.82
2019-01-28T01:59:39.306Z,985.70
2019-01-28T02:00:39.297Z,985.80
2019-01-28T02:01:39.294Z,985.71
2019-01-28T02:02:39.273Z,985.68
2019-01-28T02:03:39.271Z,985.66
2019-01-28T02:04:39.253Z,985.65
2019-01-28T02:05:39.240Z,985.62
2019-01-28T02:06:39.233Z,985.65
2019-01-28T02:07:39.221Z,985.57
2019-01-28T02:08:39.220Z,985.63
2019-01-28T02:09:39.200Z,985.66
2019-01-28T02:10:39.186Z,985.59
2019-01-28T02:11:39.174Z,985.70
2019-01-28T02:12:39.162Z,985.60
2019-01-28T02:13:39.167Z,985.62
2019-01-28T02:14:39.144Z,985.66
2019-01-28T02:15:39.131Z,985.62
2019-01-28T02:16:39.117Z,985.68
2019-01-28T02:17:39.110Z,985.56
2019-01-28T02:18:39.100Z,985.59
2019-01-28T02:19:39.096Z,985.61
2019-01-28T02:20:39.074Z,985.56
2019-01-28T02:21:39.066Z,985.53
2019-01-28T02:22:39.056Z,985.56
2019-01-28T02:23:39.040Z,985.50
2019-01-28T02:24:39.049Z,985.57
2019-01-28T02:25:39.020Z,985.49
2019-01-28T02:26:39.007Z,985.50
2019-01-28T02:27:38.998Z,985.64
2019-01-28T02:28:38.988Z,985.48
2019-01-28T02:29:38.988Z,985.48
2019-01-28T02:30:38.983Z,985.48
2019-01-28T02:31:38.953Z,985.41
2019-01-28T02:32:38.942Z,985.41
2019-01-28T02:33:38.931Z,985.42
2019-01-28T02:34:38.929Z,985.50
2019-01-28T02:35:38.908Z,985.43
2019-01-28T02:36:38.923Z,985.38
2019-01-28T02:37:38.885Z,985.35
2019-01-28T02:38:38.879Z,985.32
2019-01-28T02:39:38.877Z,985.21
2019-01-28T02:40:38.856Z,985.28
2019-01-28T02:41:38.847Z,985.37
2019-01-28T02:42:38.861Z,985.28
2019-01-28T02:43:38.820Z,985.28
2019-01-28T02:44:38.824Z,985.23
2019-01-28T02:45:38.798Z,985.21
2019-01-28T02:46:38.790Z,985.19
2019-01-28T02:47:38.778Z,985.20
2019-01-28T02:48:38.769Z,985.25
2019-01-28T02:49:38.754Z,985.16
2019-01-28T02:50:38.753Z,985.19
2019-01-28T02:51:38.745Z,985.19
2019-01-28T02:52:38.723Z,985.16
2019-01-28T02:53:38.720Z,985.14
2019-01-28T02:54:38.701Z,985.08
2019-01-28T02:55:38.700Z,985.09
2019-01-28T02:56:38.678Z,985.10
2019-01-28T02:57:38.666Z,985.05
2019-01-28T02:58:38.654Z,985.10
2019-01-28T02:59:38.648Z,984.97
2019-01-28T03:00:38.643Z,985.05
2019-01-28T03:01:38.621Z,985.04
2019-01-28T03:02:38.612Z,985.05
2019-01-28T03:03:38.600Z,985.00
2019-01-28T03:04:38.590Z,985.06
2019-01-28T03:05:38.588Z,984.97
2019-01-28T03:06:38.568Z,985.00
2019-01-28T03:07:38.556Z,984.87
2019-01-28T03:08:38.547Z,984.86
2019-01-28T03:09:38.535Z,984.81
2019-01-28T03:10:38.538Z,984.82
2019-01-28T03:11:38.519Z,984.90
2019-01-28T03:12:38.506Z,984.86
2019-01-28T03:13:38.488Z,984.79
2019-01-28T03:14:38.481Z,984.78
2019-01-28T03:15:38.474Z,984.77
2019-01-28T03:16:38.465Z,984.74
2019-01-28T03:17:38.449Z,984.82
2019-01-28T03:18:38.435Z,984.74
2019-01-28T03:19:38.423Z,984.58
2019-01-28T03:20:38.411Z,984.81
2019-01-28T03:21:38.415Z,984.78
2019-01-28T03:22:38.391Z,984.74
2019-01-28T03:23:38.377Z,984.73
2019-01-28T03:24:38.366Z,984.56
2019-01-28T03:25:38.358Z,984.73
2019-01-28T03:26:38.354Z,984.70
2019-01-28T03:27:40.301Z,984.64
2019-01-28T03:28:38.326Z,984.61
2019-01-28T03:29:38.311Z,984.51
2019-01-28T03:30:38.307Z,984.46
2019-01-28T03:31:38.301Z,984.56
2019-01-28T03:32:38.286Z,984.59
2019-01-28T03:33:38.274Z,984.61
2019-01-28T03:34:38.258Z,984.55
2019-01-28T03:35:38.247Z,984.50
2019-01-28T03:36:38.245Z,984.53
2019-01-28T03:37:38.225Z,984.48
2019-01-28T03:38:38.214Z,984.49
2019-01-28T03:39:38.204Z,984.48
2019-01-28T03:40:38.193Z,984.37
2019-01-28T03:41:38.198Z,984.38
2019-01-28T03:42:38.167Z,984.43
2019-01-28T03:43:38.159Z,984.43
2019-01-28T03:44:38.146Z,984.47
2019-01-28T03:45:38.139Z,984.37
2019-01-28T03:46:38.126Z,984.49
2019-01-28T03:47:38.132Z,984.45
2019-01-28T03:48:38.101Z,984.47
2019-01-28T03:49:38.094Z,984.49
2019-01-28T03:50:38.092Z,984.58
2019-01-28T03:51:38.075Z,984.56
2019-01-28T03:52:38.068Z,984.47
2019-01-28T03:53:38.047Z,984.53
2019-01-28T03:54:38.048Z,984.55
2019-01-28T03:55:38.025Z,984.53
2019-01-28T03:56:38.012Z,984.49
2019-01-28T03:57:38.014Z,984.50
2019-01-28T03:58:38.002Z,984.57
2019-01-28T03:59:38.002Z,984.53
2019-01-28T04:00:37.967Z,984.57
2019-01-28T04:01:37.964Z,984.52
2019-01-28T04:02:37.960Z,984.51
2019-01-28T04:03:37.941Z,984.56
2019-01-28T04:04:37.926Z,984.52
2019-01-28T04:05:37.912Z,984.42
2019-01-28T04:06:37.907Z,984.41
2019-01-28T04:07:37.901Z,984.53
2019-01-28T04:08:37.881Z,984.40
2019-01-28T04:09:37.870Z,984.43
2019-01-28T04:10:37.863Z,984.41
2019-01-28T04:11:37.846Z,984.36
2019-01-28T04:12:37.849Z,984.46
2019-01-28T04:13:37.831Z,984.50
2019-01-28T04:14:37.813Z,984.46
2019-01-28T04:15:37.803Z,984.38
2019-01-28T04:16:37.793Z,984.44
2019-01-28T04:17:37.780Z,984.45
2019-01-28T04:18:37.782Z,984.43
2019-01-28T04:19:37.759Z,984.35
2019-01-28T04:20:37.753Z,984.40
2019-01-28T04:21:37.742Z,984.42
2019-01-28T04:22:37.727Z,984.42
2019-01-28T04:23:37.723Z,984.44
2019-01-28T04:24:37.702Z,984.30
2019-01-28T04:25:37.690Z,984.44
2019-01-28T04:26:37.683Z,984.31
2019-01-28T04:27:37.671Z,984.46
2019-01-28T04:28:37.666Z,984.36
2019-01-28T04:29:37.647Z,984.47
2019-01-28T04:30:37.707Z,984.32
2019-01-28T04:31:37.631Z,984.32
2019-01-28T04:32:37.614Z,984.44
2019-01-28T04:33:37.617Z,984.34
2019-01-28T04:34:37.591Z,984.35
2019-01-28T04:35:37.580Z,984.33
2019-01-28T04:36:37.571Z,984.38
2019-01-28T04:37:37.561Z,984.36
2019-01-28T04:38:37.568Z,984.41
2019-01-28T04:39:37.537Z,984.31
2019-01-28T04:40:37.585Z,984.33
2019-01-28T04:41:37.517Z,984.30
2019-01-28T04:42:37.510Z,984.40
2019-01-28T04:43:37.506Z,984.32
2019-01-28T04:44:37.483Z,984.35
2019-01-28T04:45:37.470Z,984.33
2019-01-28T04:46:37.587Z,984.29
2019-01-28T04:47:37.448Z,984.26
2019-01-28T04:48:37.441Z,984.28
2019-01-28T04:49:37.441Z,984.27
2019-01-28T04:50:37.416Z,984.30
2019-01-28T04:51:37.404Z,984.32
2019-01-28T04:52:37.395Z,984.33
2019-01-28T04:53:37.386Z,984.30
2019-01-28T04:54:37.382Z,984.34
2019-01-28T04:55:37.359Z,984.28
2019-01-28T04:56:37.348Z,984.27
2019-01-28T04:57:37.339Z,984.25
2019-01-28T04:58:37.327Z,984.21
2019-01-28T04:59:37.327Z,984.30
2019-01-28T05:00:37.305Z,984.29
2019-01-28T05:01:37.292Z,984.28
2019-01-28T05:02:37.283Z,984.34
2019-01-28T05:03:37.272Z,984.30
2019-01-28T05:04:37.269Z,984.31
2019-01-28T05:05:37.259Z,984.29
2019-01-28T05:06:37.237Z,984.31
2019-01-28T05:07:37.228Z,984.32
2019-01-28T05:08:37.226Z,984.19
2019-01-28T05:09:37.213Z,984.20
2019-01-28T05:10:37.194Z,984.27
2019-01-28T05:11:37.182Z,984.23
2019-01-28T05:12:37.172Z,984.27
2019-01-28T05:13:37.165Z,984.26
2019-01-28T05:14:37.165Z,984.20
2019-01-28T05:15:37.141Z,984.15
2019-01-28T05:16:37.127Z,984.18
2019-01-28T05:17:37.116Z,984.20
2019-01-28T05:18:37.104Z,984.18
2019-01-28T05:19:37.093Z,984.24
2019-01-28T05:20:37.100Z,984.21
2019-01-28T05:21:37.075Z,984.20
2019-01-28T05:22:37.063Z,984.18
2019-01-28T05:23:37.056Z,984.11
2019-01-28T05:24:37.040Z,984.19
2019-01-28T05:25:37.039Z,984.25
2019-01-28T05:26:37.021Z,984.13
2019-01-28T05:27:37.008Z,984.17
2019-01-28T05:28:36.999Z,984.14
2019-01-28T05:29:36.985Z,984.24
2019-01-28T05:30:36.987Z,984.09
2019-01-28T05:31:36.984Z,984.20
2019-01-28T05:32:36.951Z,984.16
2019-01-28T05:33:36.940Z,984.11
2019-01-28T05:34:36.932Z,984.18
2019-01-28T05:35:36.929Z,984.19
2019-01-28T05:36:36.906Z,984.27
2019-01-28T05:37:36.894Z,984.20
2019-01-28T05:38:36.884Z,984.18
2019-01-28T05:39:36.876Z,984.12
2019-01-28T05:40:36.879Z,984.11
2019-01-28T05:41:36.855Z,984.11
2019-01-28T05:42:36.840Z,984.11
2019-01-28T05:43:36.828Z,984.08
2019-01-28T05:44:36.822Z,984.03
2019-01-28T05:45:36.862Z,984.02
2019-01-28T05:46:36.806Z,984.04
2019-01-28T05:47:36.785Z,984.03
2019-01-28T05:48:36.773Z,984.01
2019-01-28T05:49:36.762Z,984.09
2019-01-28T05:50:36.752Z,984.09
2019-01-28T05:51:36.749Z,984.17
2019-01-28T05:52:36.732Z,984.11
2019-01-28T05:53:36.718Z,984.11
2019-01-28T05:54:36.711Z,984.07
2019-01-28T05:55:36.732Z,984.17
2019-01-28T05:56:36.701Z,984.10
2019-01-28T05:57:36.674Z,984.11
2019-01-28T05:58:36.664Z,984.07
2019-01-28T05:59:36.664Z,984.20
2019-01-28T06:00:36.653Z,984.15
2019-01-28T06:01:36.641Z,984.11
2019-01-28T06:02:36.621Z,984.03
2019-01-28T06:03:36.609Z,984.10
2019-01-28T06:04:36.598Z,984.27
2019-01-28T06:05:36.587Z,984.22
2019-01-28T06:06:36.585Z,984.18
2019-01-28T06:07:36.566Z,984.21
2019-01-28T06:08:36.553Z,984.26
2019-01-28T06:09:36.540Z,984.21
2019-01-28T06:10:36.535Z,984.21
2019-01-28T06:11:36.537Z,984.23
2019-01-28T06:12:36.510Z,984.26
2019-01-28T06:13:36.521Z,984.28
2019-01-28T06:14:36.485Z,984.31
2019-01-28T06:15:36.476Z,984.33
2019-01-28T06:16:36.481Z,984.29
2019-01-28T06:17:39.104Z,984.30
2019-01-28T06:18:36.443Z,984.38
2019-01-28T06:19:36.485Z,984.33
2019-01-28T06:20:36.507Z,984.35
2019-01-28T06:21:36.425Z,984.39
2019-01-28T06:22:36.420Z,984.36
2019-01-28T06:23:36.399Z,984.33
2019-01-28T06:24:36.401Z,984.27
2019-01-28T06:25:36.371Z,984.40
2019-01-28T06:26:36.353Z,984.35
2019-01-28T06:27:36.353Z,984.33
2019-01-28T06:28:36.333Z,984.33
2019-01-28T06:29:36.321Z,984.38
2019-01-28T06:30:36.312Z,984.39
2019-01-28T06:31:36.298Z,984.43
2019-01-28T06:32:36.298Z,984.44
2019-01-28T06:33:36.277Z,984.41
2019-01-28T06:34:36.265Z,984.44
2019-01-28T06:35:36.256Z,984.43
2019-01-28T06:36:36.244Z,984.43
2019-01-28T06:37:36.257Z,984.48
2019-01-28T06:38:36.220Z,984.47
2019-01-28T06:39:36.886Z,984.45
2019-01-28T06:40:36.198Z,984.48
2019-01-28T06:41:36.198Z,984.42
2019-01-28T06:42:36.199Z,984.44
2019-01-28T06:43:36.165Z,984.47
2019-01-28T06:44:36.165Z,984.56
2019-01-28T06:45:36.143Z,984.52
2019-01-28T06:46:36.133Z,984.49
2019-01-28T06:47:36.123Z,984.56
2019-01-28T06:48:36.121Z,984.52
2019-01-28T06:49:36.099Z,984.56
2019-01-28T06:50:36.089Z,984.53
2019-01-28T06:51:36.077Z,984.50
2019-01-28T06:52:36.066Z,984.58
2019-01-28T06:53:36.062Z,984.58
2019-01-28T06:54:36.046Z,984.55
2019-01-28T06:55:36.035Z,984.58
2019-01-28T06:56:36.023Z,984.65
2019-01-28T06:57:36.019Z,984.63
2019-01-28T06:58:36.008Z,984.67
2019-01-28T06:59:35.989Z,984.66
2019-01-28T07:00:35.980Z,984.65
2019-01-28T07:01:35.966Z,984.57
2019-01-28T07:02:35.967Z,984.62
2019-01-28T07:03:35.954Z,984.63
2019-01-28T07:04:35.935Z,984.63
2019-01-28T07:05:35.922Z,984.60
2019-01-28T07:06:35.915Z,984.60
2019-01-28T07:07:35.901Z,984.66
2019-01-28T07:08:35.901Z,984.60
2019-01-28T07:09:35.879Z,984.67
2019-01-28T07:10:35.868Z,984.70
2019-01-28T07:11:35.858Z,984.70
2019-01-28T07:12:35.845Z,984.68
2019-01-28T07:13:35.852Z,984.78
2019-01-28T07:14:35.822Z,984.75
2019-01-28T07:15:35.812Z,984.73
2019-01-28T07:16:35.801Z,984.80
2019-01-28T07:17:35.801Z,984.83
2019-01-28T07:18:35.778Z,984.77
2019-01-28T07:19:35.778Z,984.79
2019-01-28T07:20:35.758Z,984.83
2019-01-28T07:21:35.747Z,984.91
2019-01-28T07:22:35.790Z,984.87
2019-01-28T07:23:35.733Z,985.00
2019-01-28T07:24:35.730Z,984.91
2019-01-28T07:25:35.715Z,984.97
2019-01-28T07:26:35.694Z,984.88
2019-01-28T07:27:35.724Z,984.91
2019-01-28T07:28:35.690Z,985.00
2019-01-28T07:29:35.674Z,985.03
2019-01-28T07:30:35.651Z,985.01
2019-01-28T07:31:35.669Z,985.00
2019-01-28T07:32:35.626Z,984.84
2019-01-28T07:33:35.622Z,984.99
2019-01-28T07:34:35.618Z,985.04
2019-01-28T07:35:35.604Z,985.03
2019-01-28T07:36:35.584Z,985.12
2019-01-28T07:37:35.658Z,985.10
2019-01-28T07:38:35.558Z,985.11
2019-01-28T07:39:35.567Z,985.13
2019-01-28T07:40:35.553Z,985.21
2019-01-28T07:41:35.528Z,985.16
2019-01-28T07:42:35.516Z,985.21
2019-01-28T07:43:35.527Z,985.26
2019-01-28T07:44:35.510Z,985.22
2019-01-28T07:45:35.503Z,985.21
2019-01-28T07:46:35.472Z,985.24
2019-01-28T07:47:35.459Z,985.21
2019-01-28T07:48:35.456Z,985.21
2019-01-28T07:49:35.435Z,985.20
2019-01-28T07:50:35.435Z,985.29
2019-01-28T07:51:35.415Z,985.21
2019-01-28T07:52:35.402Z,985.34
2019-01-28T07:53:35.395Z,985.30
2019-01-28T07:54:35.388Z,985.23
2019-01-28T07:55:35.381Z,985.22
2019-01-28T07:56:35.358Z,985.19
2019-01-28T07:57:35.368Z,985.21
2019-01-28T07:58:35.340Z,985.26
2019-01-28T07:59:35.327Z,985.20
2019-01-28T08:00:35.326Z,985.29
2019-01-28T08:01:35.305Z,985.26
2019-01-28T08:02:35.343Z,985.34
2019-01-28T08:03:35.291Z,985.29
2019-01-28T08:04:35.270Z,985.37
2019-01-28T08:05:35.283Z,985.27
2019-01-28T08:06:35.262Z,985.31
2019-01-28T08:07:35.237Z,985.29
2019-01-28T08:08:35.230Z,985.36
2019-01-28T08:09:35.215Z,985.26
2019-01-28T08:10:35.218Z,985.53
2019-01-28T08:11:35.195Z,985.36
2019-01-28T08:12:35.184Z,985.29
2019-01-28T08:13:35.171Z,985.26
2019-01-28T08:14:35.160Z,985.41
2019-01-28T08:15:35.151Z,985.31
2019-01-28T08:16:35.151Z,985.47
2019-01-28T08:17:35.138Z,985.30
2019-01-28T08:18:35.118Z,985.38
2019-01-28T08:19:35.108Z,985.40
2019-01-28T08:20:35.099Z,985.47
2019-01-28T08:21:35.090Z,985.42
2019-01-28T08:22:35.074Z,985.49
2019-01-28T08:23:35.063Z,985.40
2019-01-28T08:24:35.048Z,985.34
2019-01-28T08:25:35.115Z,985.47
2019-01-28T08:26:35.035Z,985.49
2019-01-28T08:27:35.198Z,985.54
2019-01-28T08:28:37.019Z,985.53
2019-01-28T08:29:35.187Z,985.47
2019-01-28T08:30:34.983Z,985.47
2019-01-28T08:31:34.979Z,985.50
2019-01-28T08:32:34.961Z,985.46
2019-01-28T08:33:34.955Z,985.54
2019-01-28T08:34:34.942Z,985.44
2019-01-28T08:35:34.929Z,985.47
2019-01-28T08:36:34.924Z,985.59
2019-01-28T08:37:34.906Z,985.49
2019-01-28T08:38:34.902Z,985.54
2019-01-28T08:39:34.884Z,985.47
2019-01-28T08:40:34.876Z,985.50
2019-01-28T08:41:34.881Z,985.48
2019-01-28T08:42:34.849Z,985.59
2019-01-28T08:43:34.844Z,985.58
2019-01-28T08:44:34.832Z,985.55
2019-01-28T08:45:34.817Z,985.63
2019-01-28T08:46:34.814Z,985.58
2019-01-28T08:47:34.804Z,985.55
2019-01-28T08:48:34.789Z,985.61
2019-01-28T08:49:34.774Z,985.57
2019-01-28T08:50:34.761Z,985.60
2019-01-28T08:51:34.751Z,985.57
2019-01-28T08:52:34.750Z,985.58
2019-01-28T08:53:34.729Z,985.58
2019-01-28T08:54:34.719Z,985.66
2019-01-28T08:55:34.707Z,985.60
2019-01-28T08:56:34.696Z,985.61
2019-01-28T08:57:34.695Z,985.77
2019-01-28T08:58:34.672Z,985.73
2019-01-28T08:59:34.664Z,985.84
2019-01-28T09:00:34.652Z,985.77
2019-01-28T09:01:34.656Z,985.74
2019-01-28T09:02:34.642Z,985.89
2019-01-28T09:03:34.618Z,985.72
2019-01-28T09:04:34.610Z,985.85
2019-01-28T09:05:34.596Z,985.83
2019-01-28T09:06:34.585Z,985.81
2019-01-28T09:07:34.583Z,985.88
2019-01-28T09:08:34.567Z,985.93
2019-01-28T09:09:34.554Z,985.77
2019-01-28T09:10:34.540Z,986.01
2019-01-28T09:11:34.531Z,985.94
2019-01-28T09:12:34.536Z,985.83
2019-01-28T09:13:34.509Z,985.97
2019-01-28T09:14:34.497Z,986.00
2019-01-28T09:15:34.494Z,985.99
2019-01-28T09:16:34.473Z,986.01
2019-01-28T09:17:34.464Z,986.05
2019-01-28T09:18:34.462Z,986.04
2019-01-28T09:19:34.442Z,986.19
2019-01-28T09:20:34.435Z,986.14
2019-01-28T09:21:34.421Z,986.14
2019-01-28T09:22:34.414Z,986.12
2019-01-28T09:23:34.407Z,986.13
2019-01-28T09:24:34.392Z,986.23
2019-01-28T09:25:34.379Z,986.12
2019-01-28T09:26:34.369Z,986.23
2019-01-28T09:27:34.353Z,986.30
2019-01-28T09:28:34.353Z,986.29
2019-01-28T09:29:34.331Z,986.38
2019-01-28T09:30:34.321Z,986.36
2019-01-28T09:31:34.311Z,986.29
2019-01-28T09:32:34.298Z,986.39
2019-01-28T09:33:34.301Z,986.41
2019-01-28T09:34:34.289Z,986.48
2019-01-28T09:35:34.265Z,986.42
2019-01-28T09:36:34.258Z,986.50
2019-01-28T09:37:34.249Z,986.51
2019-01-28T09:38:34.243Z,986.59
2019-01-28T09:39:34.225Z,986.68
2019-01-28T09:40:34.213Z,986.60
2019-01-28T09:41:35.699Z,986.67
2019-01-28T09:42:34.186Z,986.57
2019-01-28T09:43:34.193Z,986.62
2019-01-28T09:44:34.174Z,986.65
2019-01-28T09:45:34.163Z,986.69
2019-01-28T09:46:34.145Z,986.67
2019-01-28T09:47:34.134Z,986.71
2019-01-28T09:48:34.614Z,986.73
2019-01-28T09:49:34.125Z,986.77
2019-01-28T09:50:34.101Z,986.79
2019-01-28T09:51:34.117Z,986.85
2019-01-28T09:52:34.078Z,986.85
2019-01-28T09:53:34.067Z,986.83
2019-01-28T09:54:34.063Z,986.89
2019-01-28T09:55:34.048Z,986.85
2019-01-28T09:56:34.051Z,986.94
2019-01-28T09:57:34.020Z,987.02
2019-01-28T09:58:34.012Z,986.95
2019-01-28T09:59:34.010Z,987.00
2019-01-28T10:00:33.989Z,987.00
2019-01-28T10:01:33.991Z,987.01
2019-01-28T10:02:33.967Z,987.06
2019-01-28T10:03:33.954Z,987.15
2019-01-28T10:04:33.955Z,987.12
2019-01-28T10:05:33.935Z,987.12
2019-01-28T10:06:33.934Z,987.16
2019-01-28T10:07:33.914Z,987.14
2019-01-28T10:08:33.900Z,987.20
2019-01-28T10:09:33.904Z,987.22
2019-01-28T10:10:33.880Z,987.23
2019-01-28T10:11:33.867Z,987.31
2019-01-28T10:12:34.699Z,987.23
2019-01-28T10:13:33.850Z,987.24
2019-01-28T10:14:33.835Z,987.29
2019-01-28T10:15:33.833Z,987.30
2019-01-28T10:16:33.811Z,987.32
2019-01-28T10:17:33.803Z,987.35
2019-01-28T10:18:33.805Z,987.31
2019-01-28T10:19:33.791Z,987.35
2019-01-28T10:20:33.781Z,987.40
2019-01-28T10:21:33.755Z,987.42
2019-01-28T10:22:33.744Z,987.42
2019-01-28T10:23:33.735Z,987.41
2019-01-28T10:24:33.722Z,987.49
2019-01-28T10:25:33.726Z,987.43
2019-01-28T10:26:33.706Z,987.39
2019-01-28T10:27:33.689Z,987.46
2019-01-28T10:28:33.682Z,987.47
2019-01-28T10:29:33.669Z,987.49
2019-01-28T10:30:33.671Z,987.55
2019-01-28T10:31:33.648Z,987.51
2019-01-28T10:32:36.223Z,987.52
2019-01-28T10:33:33.624Z,987.57
2019-01-28T10:34:33.613Z,987.61
2019-01-28T10:35:33.620Z,987.64
2019-01-28T10:36:34.328Z,987.63
2019-01-28T10:37:33.586Z,987.65
2019-01-28T10:38:33.569Z,987.64
2019-01-28T10:39:33.561Z,987.69
2019-01-28T10:40:33.583Z,987.65
2019-01-28T10:41:33.544Z,987.70
2019-01-28T10:42:33.525Z,987.79
2019-01-28T10:43:33.515Z,987.78
2019-01-28T10:44:33.504Z,987.79
2019-01-28T10:45:33.491Z,987.84
2019-01-28T10:46:33.492Z,987.93
2019-01-28T10:47:33.485Z,987.85
2019-01-28T10:48:33.473Z,987.95
2019-01-28T10:49:33.446Z,987.87
2019-01-28T10:50:33.434Z,988.01
2019-01-28T10:51:33.436Z,987.97
2019-01-28T10:52:33.416Z,988.01
2019-01-28T10:53:33.411Z,988.03
2019-01-28T10:54:33.391Z,988.03
2019-01-28T10:55:33.380Z,988.09
2019-01-28T10:56:33.382Z,987.90
2019-01-28T10:57:33.358Z,988.12
2019-01-28T10:58:33.347Z,988.07
2019-01-28T10:59:33.343Z,988.10
2019-01-28T11:00:33.372Z,988.12
2019-01-28T11:01:33.324Z,987.93
2019-01-28T11:02:33.303Z,988.12
2019-01-28T11:03:33.291Z,988.22
2019-01-28T11:04:33.279Z,988.16
2019-01-28T11:05:33.457Z,988.30
2019-01-28T11:06:33.273Z,988.20
2019-01-28T11:07:33.249Z,988.25
2019-01-28T11:08:33.236Z,988.24
2019-01-28T11:09:33.323Z,988.29
2019-01-28T11:10:33.224Z,988.42
2019-01-28T11:11:33.212Z,988.39
2019-01-28T11:12:33.274Z,988.47
2019-01-28T11:13:33.195Z,988.51
2019-01-28T11:14:33.275Z,988.37
2019-01-28T11:15:33.242Z,988.51
2019-01-28T11:16:33.237Z,988.48
2019-01-28T11:17:33.164Z,988.45
2019-01-28T11:18:33.143Z,988.50
2019-01-28T11:19:33.117Z,988.54
2019-01-28T11:20:33.167Z,988.39
2019-01-28T11:21:33.163Z,988.48
2019-01-28T11:22:33.142Z,988.51
2019-01-28T11:23:33.092Z,988.50
2019-01-28T11:24:33.090Z,988.51
2019-01-28T11:25:33.145Z,988.49
2019-01-28T11:26:33.119Z,988.56
2019-01-28T11:27:33.059Z,988.53
2019-01-28T11:28:33.048Z,988.46
2019-01-28T11:29:33.077Z,988.62
2019-01-28T11:30:33.174Z,988.61
2019-01-28T11:31:33.125Z,988.59
2019-01-28T11:32:33.086Z,988.56
2019-01-28T11:33:32.970Z,988.67
2019-01-28T11:34:33.068Z,988.52
2019-01-28T11:35:33.014Z,988.58
2019-01-28T11:36:32.957Z,988.61
2019-01-28T11:37:33.097Z,988.71
2019-01-28T11:38:32.903Z,988.77
2019-01-28T11:39:32.947Z,988.80
2019-01-28T11:40:33.027Z,988.74
2019-01-28T11:41:32.976Z,988.80
2019-01-28T11:42:33.062Z,988.65
2019-01-28T11:43:32.910Z,988.81
2019-01-28T11:44:32.916Z,988.73
2019-01-28T11:45:32.938Z,988.92
2019-01-28T11:46:32.813Z,988.95
2019-01-28T11:47:32.957Z,988.86
2019-01-28T11:48:33.118Z,988.77
2019-01-28T11:49:32.805Z,988.87
2019-01-28T11:50:32.769Z,988.88
2019-01-28T11:51:32.766Z,988.92
2019-01-28T11:52:32.750Z,988.92
2019-01-28T11:53:32.746Z,988.86
2019-01-28T11:54:32.732Z,988.92
2019-01-28T11:55:32.716Z,988.95
2019-01-28T11:56:32.704Z,988.96
2019-01-28T11:57:32.698Z,989.07
2019-01-28T11:58:32.690Z,989.11
2019-01-28T11:59:32.669Z,989.10
2019-01-28T12:00:32.663Z,989.16
2019-01-28T12:01:32.661Z,989.12
2019-01-28T12:02:34.483Z,989.16
2019-01-28T12:03:32.660Z,989.18
2019-01-28T12:04:32.614Z,989.21
2019-01-28T12:05:32.605Z,989.24
2019-01-28T12:06:32.592Z,989.27
2019-01-28T12:07:32.581Z,989.27
2019-01-28T12:08:32.577Z,989.35
2019-01-28T12:09:32.575Z,989.35
2019-01-28T12:10:32.549Z,989.37
2019-01-28T12:11:32.538Z,989.42
2019-01-28T12:12:32.533Z,989.43
2019-01-28T12:13:32.517Z,989.39
2019-01-28T12:14:32.517Z,989.43
2019-01-28T12:15:32.492Z,989.38
2019-01-28T12:16:32.484Z,989.48
2019-01-28T12:17:32.469Z,989.48
2019-01-28T12:18:32.458Z,989.58
2019-01-28T12:19:32.456Z,989.62
2019-01-28T12:20:32.438Z,989.53
2019-01-28T12:21:32.426Z,989.59
2019-01-28T12:22:32.432Z,989.59
2019-01-28T12:23:34.486Z,989.48
2019-01-28T12:24:32.408Z,989.63
2019-01-28T12:25:32.384Z,989.69
2019-01-28T12:26:32.373Z,989.63
2019-01-28T12:27:32.360Z,989.69
2019-01-28T12:28:32.351Z,989.60